Minocqua, Wisconsin
Current Conditions -  °F | °C
As of 9:15 PM on Friday 21 Nov 2014 (Local Time) from KARV Reporting Station
Clear Clear  
Wind Chill: 12°   Ceiling: Unl
Heat Index: 24°   Visibility: 10mi
Dew Point: 12°   Wind: 15mph
Humidity: 61%   Direction: 200°SSW
Pressure: 29.89"   Gusts: 21mph
Location:  45.93°N, 89.73°W
Report Text: KARV 220315Z AUTO 20013G18KT 10SM CLR M04/M11 A2989 RMK AO2 T10431109
Loading
Personal Weather Stations






























Interactive Weather Map New forecast layout! Learn more

10-Day Weather Forecast

Advertisements
Track Severe Weather on mobile